Snow/Ice From: 16-12-2017 16:00 Until: 17-12-2017 16:00 warning for: Snow/Ice Level: Yellow info button

Although rather usual in this region, locally or potentially dangerous phenomena are expected. (such as local winds, summer thunderstorms, rising streams or high waves) Be aware and pay attention to the latest weather updates, especially if you carry out activities exposed to weather or close to a stream or shoreline. 


Meteo18 Weather Cam more information Meteo18 Weather Cam


Thunder radar more information blitzortung!


warning for Snow/Ice more information rain snow radar


Visit our other weather sites:

Template documentation
and downloads

And another site



Weather Underground History page Text

Daily Summary for August 30, 2017 Units:  Both    English   Metric
« Previous Day
Next Day »
Daily Weekly Monthly Yearly Custom
  High: Low: Average:
Temperature: 79 °F /  26.1 °C 60.8 °F /  16.0 °C 70.2 °F /  21.2 °C
Dew Point: 66 °F /  18.9 °C 57.9 °F /  14.4 °C 63.9 °F /  17.7 °C
Humidity: 91 % 64 % 81 %
Wind Speed: 14 mph /  22.5 km/h - 4.2 mph /  6.7 km/h
Wind Gust: 22 mph /  35.4 km/h - -
Wind:- - WSW
Pressure: 30 in /  1014.4 hPa 29.8 in /  1010.7 hPa -
Precipitation: 0.06 in /  1.5 mm    
Historical Graphs
 
 
Tabular Data for August 30, 2017
Time Temperature Dew Point Pressure Wind Wind Speed Wind Gust Humidity Rainfall Rate (Hourly)
00:02 79 °F /  26.1 °C 65.8 °F /  18.8 °C 29.9 in /  1012.1 hPa West 5 mph /  8.0 km/h 12 mph /  19.3 km/h 64 % 0 in /  0.0 mm
00:12 78.6 °F /  25.9 °C 65.8 °F /  18.8 °C 29.9 in /  1012.1 hPa West 6 mph /  9.7 km/h 12 mph /  19.3 km/h 65 % 0 in /  0.0 mm
00:17 78.6 °F /  25.9 °C 65.8 °F /  18.8 °C 29.9 in /  1012.1 hPa WSW 7 mph /  11.3 km/h 11 mph /  17.7 km/h 65 % 0 in /  0.0 mm
00:22 78.3 °F /  25.7 °C 65.5 °F /  18.6 °C 29.9 in /  1011.7 hPa WSW 5 mph /  8.0 km/h 11 mph /  17.7 km/h 65 % 0 in /  0.0 mm
00:32 78.1 °F /  25.6 °C 65.3 °F /  18.5 °C 29.9 in /  1011.7 hPa West 8 mph /  12.9 km/h 14 mph /  22.5 km/h 65 % 0 in /  0.0 mm
00:42 77.2 °F /  25.1 °C 65.8 °F /  18.8 °C 29.9 in /  1011.7 hPa WSW 5 mph /  8.0 km/h 12 mph /  19.3 km/h 68 % 0 in /  0.0 mm
00:52 76.5 °F /  24.7 °C 66 °F /  18.9 °C 29.9 in /  1011.7 hPa West 8 mph /  12.9 km/h 12 mph /  19.3 km/h 70 % 0 in /  0.0 mm
00:57 76.3 °F /  24.6 °C 65.8 °F /  18.8 °C 29.9 in /  1011.7 hPa West 7 mph /  11.3 km/h 12 mph /  19.3 km/h 70 % 0 in /  0.0 mm
01:02 76.1 °F /  24.5 °C 66 °F /  18.9 °C 29.9 in /  1011.7 hPa WSW 7 mph /  11.3 km/h 12 mph /  19.3 km/h 71 % 0 in /  0.0 mm
01:12 75.7 °F /  24.3 °C 65.7 °F /  18.7 °C 29.9 in /  1011.7 hPa West 6 mph /  9.7 km/h 12 mph /  19.3 km/h 71 % 0 in /  0.0 mm
01:22 75.4 °F /  24.1 °C 65.7 °F /  18.7 °C 29.9 in /  1011.7 hPa WSW 6 mph /  9.7 km/h 11 mph /  17.7 km/h 72 % 0 in /  0.0 mm
01:27 75 °F /  23.9 °C 65.8 °F /  18.8 °C 29.9 in /  1011.7 hPa West 4 mph /  6.4 km/h 11 mph /  17.7 km/h 73 % 0 in /  0.0 mm
01:32 74.7 °F /  23.7 °C 65.8 °F /  18.8 °C 29.9 in /  1011.7 hPa West 5 mph /  8.0 km/h 11 mph /  17.7 km/h 74 % 0 in /  0.0 mm
01:37 74.7 °F /  23.7 °C 65.8 °F /  18.8 °C 29.9 in /  1011.7 hPa West 2 mph /  3.2 km/h 11 mph /  17.7 km/h 74 % 0 in /  0.0 mm
01:42 74.3 °F /  23.5 °C 65.5 °F /  18.6 °C 29.9 in /  1011.7 hPa WSW 3 mph /  4.8 km/h 9 mph /  14.5 km/h 74 % 0 in /  0.0 mm
01:47 74.1 °F /  23.4 °C 65.3 °F /  18.5 °C 29.9 in /  1011.7 hPa WNW 2 mph /  3.2 km/h 9 mph /  14.5 km/h 74 % 0 in /  0.0 mm
01:52 74.1 °F /  23.4 °C 65.7 °F /  18.7 °C 29.9 in /  1011.7 hPa SW 1 mph /  1.6 km/h 9 mph /  14.5 km/h 75 % 0 in /  0.0 mm
01:57 73.6 °F /  23.1 °C 65.5 °F /  18.6 °C 29.9 in /  1011.7 hPa Calm   8 mph /  12.9 km/h 76 % 0 in /  0.0 mm
02:02 73 °F /  22.8 °C 65.8 °F /  18.8 °C 29.9 in /  1011.7 hPa Calm   8 mph /  12.9 km/h 78 % 0 in /  0.0 mm
02:12 72 °F /  22.2 °C 65.5 °F /  18.6 °C 29.9 in /  1011.7 hPa Calm   5 mph /  8.0 km/h 80 % 0 in /  0.0 mm
02:17 71.6 °F /  22.0 °C 65.5 °F /  18.6 °C 29.9 in /  1011.7 hPa SSW 1 mph /  1.6 km/h 2 mph /  3.2 km/h 81 % 0 in /  0.0 mm
02:22 71.2 °F /  21.8 °C 65.5 °F /  18.6 °C 29.9 in /  1011.7 hPa Calm   2 mph /  3.2 km/h 82 % 0 in /  0.0 mm
02:32 70.9 °F /  21.6 °C 65.1 °F /  18.4 °C 29.9 in /  1011.7 hPa Calm   3 mph /  4.8 km/h 82 % 0 in /  0.0 mm
02:37 70.9 °F /  21.6 °C 65.1 °F /  18.4 °C 29.9 in /  1011.7 hPa Calm   3 mph /  4.8 km/h 82 % 0 in /  0.0 mm
02:42 70.7 °F /  21.5 °C 64.6 °F /  18.1 °C 29.9 in /  1011.7 hPa Calm   1 mph /  1.6 km/h 81 % 0 in /  0.0 mm
02:52 70.2 °F /  21.2 °C 64.8 °F /  18.2 °C 29.9 in /  1011.4 hPa Calm   1 mph /  1.6 km/h 83 % 0 in /  0.0 mm
03:02 70 °F /  21.1 °C 64.2 °F /  17.9 °C 29.9 in /  1011.4 hPa SW 2 mph /  3.2 km/h 3 mph /  4.8 km/h 82 % 0 in /  0.0 mm
03:12 70.2 °F /  21.2 °C 64.4 °F /  18.0 °C 29.9 in /  1011.4 hPa SW 2 mph /  3.2 km/h 3 mph /  4.8 km/h 82 % 0 in /  0.0 mm
03:17 70.2 °F /  21.2 °C 64.4 °F /  18.0 °C 29.9 in /  1011.7 hPa SSW 4 mph /  6.4 km/h 4 mph /  6.4 km/h 82 % 0 in /  0.0 mm
03:22 69.8 °F /  21.0 °C 64.4 °F /  18.0 °C 29.9 in /  1011.7 hPa SSW 4 mph /  6.4 km/h 4 mph /  6.4 km/h 83 % 0 in /  0.0 mm
03:27 69.6 °F /  20.9 °C 64.2 °F /  17.9 °C 29.9 in /  1011.7 hPa South 2 mph /  3.2 km/h 5 mph /  8.0 km/h 83 % 0 in /  0.0 mm
03:32 69.4 °F /  20.8 °C 64.4 °F /  18.0 °C 29.9 in /  1011.7 hPa SSW 1 mph /  1.6 km/h 5 mph /  8.0 km/h 84 % 0 in /  0.0 mm
03:37 69.3 °F /  20.7 °C 64.6 °F /  18.1 °C 29.9 in /  1011.7 hPa SSW 2 mph /  3.2 km/h 5 mph /  8.0 km/h 85 % 0 in /  0.0 mm
03:42 69.1 °F /  20.6 °C 64.4 °F /  18.0 °C 29.9 in /  1011.7 hPa SSW 1 mph /  1.6 km/h 5 mph /  8.0 km/h 85 % 0 in /  0.0 mm
03:52 68.7 °F /  20.4 °C 64.4 °F /  18.0 °C 29.9 in /  1011.7 hPa SSW 2 mph /  3.2 km/h 3 mph /  4.8 km/h 86 % 0 in /  0.0 mm
03:57 68.5 °F /  20.3 °C 64.2 °F /  17.9 °C 29.9 in /  1011.7 hPa SSW 1 mph /  1.6 km/h 3 mph /  4.8 km/h 86 % 0 in /  0.0 mm
04:02 68.2 °F /  20.1 °C 63.9 °F /  17.7 °C 29.9 in /  1011.7 hPa SW 2 mph /  3.2 km/h 3 mph /  4.8 km/h 86 % 0 in /  0.0 mm
04:07 67.8 °F /  19.9 °C 63.5 °F /  17.5 °C 29.9 in /  1011.7 hPa SSW 1 mph /  1.6 km/h 3 mph /  4.8 km/h 86 % 0 in /  0.0 mm
04:12 67.6 °F /  19.8 °C 63.7 °F /  17.6 °C 29.9 in /  1011.7 hPa SSW 1 mph /  1.6 km/h 3 mph /  4.8 km/h 87 % 0 in /  0.0 mm
04:17 67.5 °F /  19.7 °C 63.5 °F /  17.5 °C 29.9 in /  1011.7 hPa Calm   3 mph /  4.8 km/h 87 % 0 in /  0.0 mm
04:22 67.3 °F /  19.6 °C 63.3 °F /  17.4 °C 29.9 in /  1011.7 hPa SSW 1 mph /  1.6 km/h 4 mph /  6.4 km/h 87 % 0 in /  0.0 mm
04:32 67.1 °F /  19.5 °C 63.5 °F /  17.5 °C 29.9 in /  1011.7 hPa Calm   4 mph /  6.4 km/h 88 % 0 in /  0.0 mm
04:37 66.9 °F /  19.4 °C 63.3 °F /  17.4 °C 29.9 in /  1011.7 hPa SSW 1 mph /  1.6 km/h 3 mph /  4.8 km/h 88 % 0 in /  0.0 mm
04:42 66.9 °F /  19.4 °C 63.5 °F /  17.5 °C 29.9 in /  1011.7 hPa SW 2 mph /  3.2 km/h 3 mph /  4.8 km/h 89 % 0 in /  0.0 mm
04:47 67.1 °F /  19.5 °C 63.5 °F /  17.5 °C 29.9 in /  1011.7 hPa Calm   2 mph /  3.2 km/h 88 % 0 in /  0.0 mm
04:52 67.3 °F /  19.6 °C 63.7 °F /  17.6 °C 29.9 in /  1011.7 hPa SSW 2 mph /  3.2 km/h 3 mph /  4.8 km/h 88 % 0 in /  0.0 mm
05:02 67.5 °F /  19.7 °C 63.9 °F /  17.7 °C 29.9 in /  1012.1 hPa SW 2 mph /  3.2 km/h 4 mph /  6.4 km/h 88 % 0 in /  0.0 mm
05:12 67.8 °F /  19.9 °C 63.9 °F /  17.7 °C 29.9 in /  1012.1 hPa SW 2 mph /  3.2 km/h 4 mph /  6.4 km/h 87 % 0 in /  0.0 mm
05:17 67.8 °F /  19.9 °C 63.9 °F /  17.7 °C 29.9 in /  1012.1 hPa SSE 1 mph /  1.6 km/h 4 mph /  6.4 km/h 87 % 0 in /  0.0 mm
05:22 67.8 °F /  19.9 °C 63.9 °F /  17.7 °C 29.9 in /  1012.1 hPa Calm   3 mph /  4.8 km/h 87 % 0 in /  0.0 mm
05:32 67.6 °F /  19.8 °C 63.7 °F /  17.6 °C 29.9 in /  1011.7 hPa Calm   3 mph /  4.8 km/h 87 % 0 in /  0.0 mm
05:42 67.6 °F /  19.8 °C 63.7 °F /  17.6 °C 29.9 in /  1012.1 hPa Calm   3 mph /  4.8 km/h 87 % 0 in /  0.0 mm
05:47 67.6 °F /  19.8 °C 63.7 °F /  17.6 °C 29.9 in /  1012.1 hPa Calm   3 mph /  4.8 km/h 87 % 0 in /  0.0 mm
05:52 67.6 °F /  19.8 °C 63.7 °F /  17.6 °C 29.9 in /  1012.1 hPa SW 1 mph /  1.6 km/h 2 mph /  3.2 km/h 87 % 0 in /  0.0 mm
05:57 67.8 °F /  19.9 °C 63.5 °F /  17.5 °C 29.9 in /  1012.1 hPa WSW 3 mph /  4.8 km/h 3 mph /  4.8 km/h 86 % 0 in /  0.0 mm
06:02 68 °F /  20.0 °C 63.7 °F /  17.6 °C 29.9 in /  1012.1 hPa Calm   5 mph /  8.0 km/h 86 % 0 in /  0.0 mm
06:12 68.2 °F /  20.1 °C 63.5 °F /  17.5 °C 29.9 in /  1012.1 hPa SW 2 mph /  3.2 km/h 5 mph /  8.0 km/h 85 % 0 in /  0.0 mm
06:17 68.2 °F /  20.1 °C 63.5 °F /  17.5 °C 29.9 in /  1012.1 hPa SW 2 mph /  3.2 km/h 5 mph /  8.0 km/h 85 % 0 in /  0.0 mm
06:32 67.8 °F /  19.9 °C 63.1 °F /  17.3 °C 29.9 in /  1012.1 hPa Calm   7 mph /  11.3 km/h 85 % 0 in /  0.0 mm
06:37 67.8 °F /  19.9 °C 63.1 °F /  17.3 °C 29.9 in /  1012.1 hPa WSW 1 mph /  1.6 km/h 5 mph /  8.0 km/h 85 % 0 in /  0.0 mm
06:42 67.8 °F /  19.9 °C 63.1 °F /  17.3 °C 29.9 in /  1012.1 hPa Calm   5 mph /  8.0 km/h 85 % 0 in /  0.0 mm
06:47 67.8 °F /  19.9 °C 63.1 °F /  17.3 °C 29.9 in /  1012.1 hPa Calm   5 mph /  8.0 km/h 85 % 0 in /  0.0 mm
06:52 67.8 °F /  19.9 °C 63.1 °F /  17.3 °C 29.9 in /  1012.1 hPa SW 5 mph /  8.0 km/h 5 mph /  8.0 km/h 85 % 0 in /  0.0 mm
07:02 67.6 °F /  19.8 °C 63.3 °F /  17.4 °C 29.9 in /  1012.1 hPa Calm   4 mph /  6.4 km/h 86 % 0 in /  0.0 mm
07:07 67.6 °F /  19.8 °C 63.3 °F /  17.4 °C 29.9 in /  1012.1 hPa Calm   4 mph /  6.4 km/h 86 % 0 in /  0.0 mm
07:17 67.5 °F /  19.7 °C 63.1 °F /  17.3 °C 29.9 in /  1012.1 hPa Calm   5 mph /  8.0 km/h 86 % 0 in /  0.0 mm
07:22 67.5 °F /  19.7 °C 63.1 °F /  17.3 °C 29.9 in /  1012.1 hPa SW 1 mph /  1.6 km/h 3 mph /  4.8 km/h 86 % 0 in /  0.0 mm
07:32 67.5 °F /  19.7 °C 63.1 °F /  17.3 °C 29.9 in /  1012.1 hPa SW 2 mph /  3.2 km/h 4 mph /  6.4 km/h 86 % 0 in /  0.0 mm
07:42 67.5 °F /  19.7 °C 63.1 °F /  17.3 °C 29.9 in /  1012.4 hPa SW 1 mph /  1.6 km/h 4 mph /  6.4 km/h 86 % 0 in /  0.0 mm
08:02 67.3 °F /  19.6 °C 63 °F /  17.2 °C 29.9 in /  1012.8 hPa SW 6 mph /  9.7 km/h 6 mph /  9.7 km/h 86 % 0 in /  0.0 mm
08:12 67.5 °F /  19.7 °C 63.1 °F /  17.3 °C 29.9 in /  1012.8 hPa SSW 4 mph /  6.4 km/h 8 mph /  12.9 km/h 86 % 0 in /  0.0 mm
08:17 67.5 °F /  19.7 °C 63.1 °F /  17.3 °C 29.9 in /  1012.8 hPa SSW 3 mph /  4.8 km/h 8 mph /  12.9 km/h 86 % 0 in /  0.0 mm
08:22 67.6 °F /  19.8 °C 63.3 °F /  17.4 °C 29.9 in /  1012.8 hPa SW 4 mph /  6.4 km/h 6 mph /  9.7 km/h 86 % 0 in /  0.0 mm
08:32 67.8 °F /  19.9 °C 63.1 °F /  17.3 °C 29.9 in /  1012.8 hPa SW 6 mph /  9.7 km/h 7 mph /  11.3 km/h 85 % 0 in /  0.0 mm
08:42 68 °F /  20.0 °C 63.3 °F /  17.4 °C 29.9 in /  1012.8 hPa WSW 1 mph /  1.6 km/h 8 mph /  12.9 km/h 85 % 0 in /  0.0 mm
08:52 68.2 °F /  20.1 °C 63.1 °F /  17.3 °C 29.9 in /  1012.8 hPa South 6 mph /  9.7 km/h 8 mph /  12.9 km/h 84 % 0 in /  0.0 mm
09:02 68.2 °F /  20.1 °C 63.1 °F /  17.3 °C 29.9 in /  1012.8 hPa WSW 2 mph /  3.2 km/h 8 mph /  12.9 km/h 84 % 0 in /  0.0 mm
09:12 68.5 °F /  20.3 °C 63.5 °F /  17.5 °C 29.9 in /  1012.8 hPa West 3 mph /  4.8 km/h 8 mph /  12.9 km/h 84 % 0 in /  0.0 mm
09:17 68.9 °F /  20.5 °C 63.5 °F /  17.5 °C 29.9 in /  1012.8 hPa SW 4 mph /  6.4 km/h 8 mph /  12.9 km/h 83 % 0 in /  0.0 mm
09:22 69.1 °F /  20.6 °C 63.3 °F /  17.4 °C 29.9 in /  1012.8 hPa SSE 3 mph /  4.8 km/h 9 mph /  14.5 km/h 82 % 0 in /  0.0 mm
09:27 69.3 °F /  20.7 °C 63.5 °F /  17.5 °C 29.9 in /  1012.8 hPa West 5 mph /  8.0 km/h 9 mph /  14.5 km/h 82 % 0 in /  0.0 mm
09:32 69.6 °F /  20.9 °C 63.9 °F /  17.7 °C 29.9 in /  1012.8 hPa SW 9 mph /  14.5 km/h 10 mph /  16.1 km/h 82 % 0 in /  0.0 mm
09:42 69.8 °F /  21.0 °C 63.3 °F /  17.4 °C 29.9 in /  1012.8 hPa WSW 4 mph /  6.4 km/h 14 mph /  22.5 km/h 80 % 0 in /  0.0 mm
09:47 69.8 °F /  21.0 °C 63.3 °F /  17.4 °C 29.9 in /  1013.1 hPa West 2 mph /  3.2 km/h 14 mph /  22.5 km/h 80 % 0 in /  0.0 mm
09:57 70 °F /  21.1 °C 63.1 °F /  17.3 °C 29.9 in /  1013.1 hPa WSW 8 mph /  12.9 km/h 12 mph /  19.3 km/h 79 % 0 in /  0.0 mm
10:02 69.8 °F /  21.0 °C 63.3 °F /  17.4 °C 29.9 in /  1013.1 hPa SW 5 mph /  8.0 km/h 15 mph /  24.1 km/h 80 % 0 in /  0.0 mm
10:12 70.2 °F /  21.2 °C 63.3 °F /  17.4 °C 29.9 in /  1013.1 hPa West 5 mph /  8.0 km/h 15 mph /  24.1 km/h 79 % 0 in /  0.0 mm
10:17 70.2 °F /  21.2 °C 63.3 °F /  17.4 °C 29.9 in /  1013.1 hPa West 8 mph /  12.9 km/h 15 mph /  24.1 km/h 79 % 0 in /  0.0 mm
10:22 70.5 °F /  21.4 °C 63.7 °F /  17.6 °C 29.9 in /  1013.1 hPa SW 1 mph /  1.6 km/h 11 mph /  17.7 km/h 79 % 0 in /  0.0 mm
10:32 70.9 °F /  21.6 °C 63.7 °F /  17.6 °C 29.9 in /  1013.1 hPa WSW 9 mph /  14.5 km/h 12 mph /  19.3 km/h 78 % 0 in /  0.0 mm
10:42 70.7 °F /  21.5 °C 63.5 °F /  17.5 °C 29.9 in /  1012.8 hPa SW 3 mph /  4.8 km/h 13 mph /  20.9 km/h 78 % 0 in /  0.0 mm
10:47 70.7 °F /  21.5 °C 63.5 °F /  17.5 °C 29.9 in /  1013.1 hPa WSW 4 mph /  6.4 km/h 13 mph /  20.9 km/h 78 % 0 in /  0.0 mm
10:52 70.9 °F /  21.6 °C 63.7 °F /  17.6 °C 29.9 in /  1013.1 hPa WSW 4 mph /  6.4 km/h 9 mph /  14.5 km/h 78 % 0 in /  0.0 mm
10:57 71.1 °F /  21.7 °C 64.2 °F /  17.9 °C 29.9 in /  1013.1 hPa West 5 mph /  8.0 km/h 9 mph /  14.5 km/h 79 % 0 in /  0.0 mm
11:02 71.4 °F /  21.9 °C 63.9 °F /  17.7 °C 29.9 in /  1013.1 hPa WSW 8 mph /  12.9 km/h 9 mph /  14.5 km/h 77 % 0 in /  0.0 mm
11:12 71.2 °F /  21.8 °C 64 °F /  17.8 °C 29.9 in /  1013.4 hPa SW 6 mph /  9.7 km/h 10 mph /  16.1 km/h 78 % 0 in /  0.0 mm
11:17 71.1 °F /  21.7 °C 63.9 °F /  17.7 °C 29.9 in /  1013.8 hPa WSW 4 mph /  6.4 km/h 10 mph /  16.1 km/h 78 % 0 in /  0.0 mm
11:22 71.1 °F /  21.7 °C 63.9 °F /  17.7 °C 29.9 in /  1013.8 hPa WSW 3 mph /  4.8 km/h 11 mph /  17.7 km/h 78 % 0 in /  0.0 mm
11:32 70.9 °F /  21.6 °C 64 °F /  17.8 °C 29.9 in /  1013.4 hPa SW 8 mph /  12.9 km/h 11 mph /  17.7 km/h 79 % 0 in /  0.0 mm
11:37 70.5 °F /  21.4 °C 63.7 °F /  17.6 °C 29.9 in /  1013.4 hPa SW 8 mph /  12.9 km/h 11 mph /  17.7 km/h 79 % 0 in /  0.0 mm
11:42 70.7 °F /  21.5 °C 63.9 °F /  17.7 °C 29.9 in /  1013.4 hPa WSW 8 mph /  12.9 km/h 10 mph /  16.1 km/h 79 % 0 in /  0.0 mm
11:47 70.9 °F /  21.6 °C 64 °F /  17.8 °C 29.9 in /  1013.4 hPa SW 8 mph /  12.9 km/h 10 mph /  16.1 km/h 79 % 0 in /  0.0 mm
11:57 71.2 °F /  21.8 °C 64.4 °F /  18.0 °C 29.9 in /  1013.4 hPa SW 4 mph /  6.4 km/h 13 mph /  20.9 km/h 79 % 0 in /  0.0 mm
12:02 71.4 °F /  21.9 °C 64.2 °F /  17.9 °C 29.9 in /  1013.4 hPa SW 5 mph /  8.0 km/h 13 mph /  20.9 km/h 78 % 0 in /  0.0 mm
12:12 71.4 °F /  21.9 °C 63.9 °F /  17.7 °C 29.9 in /  1013.1 hPa SW 7 mph /  11.3 km/h 10 mph /  16.1 km/h 77 % 0 in /  0.0 mm
12:17 71.4 °F /  21.9 °C 63.5 °F /  17.5 °C 29.9 in /  1013.1 hPa WSW 5 mph /  8.0 km/h 10 mph /  16.1 km/h 76 % 0 in /  0.0 mm
12:22 71.4 °F /  21.9 °C 63.9 °F /  17.7 °C 29.9 in /  1013.1 hPa SW 10 mph /  16.1 km/h 10 mph /  16.1 km/h 77 % 0 in /  0.0 mm
12:32 71.8 °F /  22.1 °C 64.2 °F /  17.9 °C 29.9 in /  1013.1 hPa WSW 2 mph /  3.2 km/h 10 mph /  16.1 km/h 77 % 0 in /  0.0 mm
12:37 72 °F /  22.2 °C 64.4 °F /  18.0 °C 29.9 in /  1012.8 hPa SW 4 mph /  6.4 km/h 10 mph /  16.1 km/h 77 % 0 in /  0.0 mm
12:42 72 °F /  22.2 °C 64 °F /  17.8 °C 29.9 in /  1012.8 hPa West 3 mph /  4.8 km/h 11 mph /  17.7 km/h 76 % 0 in /  0.0 mm
12:47 71.8 °F /  22.1 °C 63.9 °F /  17.7 °C 29.9 in /  1013.1 hPa WSW 4 mph /  6.4 km/h 11 mph /  17.7 km/h 76 % 0 in /  0.0 mm
12:52 71.8 °F /  22.1 °C 63.9 °F /  17.7 °C 29.9 in /  1012.8 hPa SW 2 mph /  3.2 km/h 10 mph /  16.1 km/h 76 % 0 in /  0.0 mm
13:02 71.8 °F /  22.1 °C 63.9 °F /  17.7 °C 29.9 in /  1012.8 hPa South 6 mph /  9.7 km/h 10 mph /  16.1 km/h 76 % 0 in /  0.0 mm
13:12 72 °F /  22.2 °C 63.7 °F /  17.6 °C 29.9 in /  1013.1 hPa SSW 4 mph /  6.4 km/h 11 mph /  17.7 km/h 75 % 0 in /  0.0 mm
13:17 72 °F /  22.2 °C 64 °F /  17.8 °C 29.9 in /  1012.8 hPa SW 2 mph /  3.2 km/h 11 mph /  17.7 km/h 76 % 0 in /  0.0 mm
13:22 72 °F /  22.2 °C 64 °F /  17.8 °C 29.9 in /  1012.8 hPa WSW 2 mph /  3.2 km/h 11 mph /  17.7 km/h 76 % 0 in /  0.0 mm
13:32 72.3 °F /  22.4 °C 64.4 °F /  18.0 °C 29.9 in /  1012.8 hPa WSW 4 mph /  6.4 km/h 9 mph /  14.5 km/h 76 % 0 in /  0.0 mm
13:42 72.7 °F /  22.6 °C 64.2 °F /  17.9 °C 29.9 in /  1012.8 hPa SW 8 mph /  12.9 km/h 8 mph /  12.9 km/h 75 % 0 in /  0.0 mm
13:47 72.7 °F /  22.6 °C 63.9 °F /  17.7 °C 29.9 in /  1013.1 hPa SSW 4 mph /  6.4 km/h 8 mph /  12.9 km/h 74 % 0 in /  0.0 mm
13:52 72.7 °F /  22.6 °C 63.9 °F /  17.7 °C 29.9 in /  1012.8 hPa WSW 7 mph /  11.3 km/h 12 mph /  19.3 km/h 74 % 0 in /  0.0 mm
14:02 72.7 °F /  22.6 °C 63.5 °F /  17.5 °C 29.9 in /  1012.8 hPa SW 4 mph /  6.4 km/h 12 mph /  19.3 km/h 73 % 0 in /  0.0 mm
14:12 72.5 °F /  22.5 °C 63.3 °F /  17.4 °C 29.9 in /  1013.1 hPa WSW 4 mph /  6.4 km/h 15 mph /  24.1 km/h 73 % 0 in /  0.0 mm
14:17 72.3 °F /  22.4 °C 63.5 °F /  17.5 °C 29.9 in /  1013.1 hPa West 3 mph /  4.8 km/h 15 mph /  24.1 km/h 74 % 0 in /  0.0 mm
14:27 72.7 °F /  22.6 °C 63.9 °F /  17.7 °C 29.9 in /  1013.1 hPa SW 8 mph /  12.9 km/h 15 mph /  24.1 km/h 74 % 0 in /  0.0 mm
14:32 72.7 °F /  22.6 °C 63.9 °F /  17.7 °C 29.9 in /  1013.1 hPa SW 10 mph /  16.1 km/h 15 mph /  24.1 km/h 74 % 0 in /  0.0 mm
14:42 72.9 °F /  22.7 °C 63.7 °F /  17.6 °C 29.9 in /  1013.1 hPa SSW 4 mph /  6.4 km/h 13 mph /  20.9 km/h 73 % 0 in /  0.0 mm
14:52 73 °F /  22.8 °C 63.5 °F /  17.5 °C 29.9 in /  1013.1 hPa SSW 7 mph /  11.3 km/h 14 mph /  22.5 km/h 72 % 0 in /  0.0 mm
15:02 73.2 °F /  22.9 °C 64 °F /  17.8 °C 29.9 in /  1013.4 hPa South 7 mph /  11.3 km/h 13 mph /  20.9 km/h 73 % 0 in /  0.0 mm
15:07 72.9 °F /  22.7 °C 63.7 °F /  17.6 °C 29.9 in /  1013.1 hPa WSW 9 mph /  14.5 km/h 13 mph /  20.9 km/h 73 % 0 in /  0.0 mm
15:12 72.3 °F /  22.4 °C 64.4 °F /  18.0 °C 29.9 in /  1013.1 hPa South 10 mph /  16.1 km/h 15 mph /  24.1 km/h 76 % 0 in /  0.0 mm
15:22 72 °F /  22.2 °C 65.1 °F /  18.4 °C 29.9 in /  1012.8 hPa WSW 7 mph /  11.3 km/h 15 mph /  24.1 km/h 79 % 0 in /  0.0 mm
15:32 72.1 °F /  22.3 °C 64.9 °F /  18.3 °C 29.9 in /  1012.8 hPa WSW 8 mph /  12.9 km/h 13 mph /  20.9 km/h 78 % 0 in /  0.0 mm
15:42 72.1 °F /  22.3 °C 64.6 °F /  18.1 °C 29.9 in /  1012.4 hPa SW 9 mph /  14.5 km/h 13 mph /  20.9 km/h 77 % 0 in /  0.0 mm
15:52 72.7 °F /  22.6 °C 65.1 °F /  18.4 °C 29.9 in /  1012.1 hPa SSW 4 mph /  6.4 km/h 13 mph /  20.9 km/h 77 % 0 in /  0.0 mm
16:02 73 °F /  22.8 °C 64.6 °F /  18.1 °C 29.9 in /  1012.4 hPa SSW 7 mph /  11.3 km/h 10 mph /  16.1 km/h 75 % 0 in /  0.0 mm
16:12 73.6 °F /  23.1 °C 64.4 °F /  18.0 °C 29.9 in /  1012.4 hPa SSW 8 mph /  12.9 km/h 14 mph /  22.5 km/h 73 % 0 in /  0.0 mm
16:17 73.6 °F /  23.1 °C 64.4 °F /  18.0 °C 29.9 in /  1012.4 hPa SW 5 mph /  8.0 km/h 15 mph /  24.1 km/h 73 % 0 in /  0.0 mm
16:22 73.8 °F /  23.2 °C 64.2 °F /  17.9 °C 29.9 in /  1012.1 hPa SSW 8 mph /  12.9 km/h 15 mph /  24.1 km/h 72 % 0 in /  0.0 mm
16:27 73.9 °F /  23.3 °C 63.9 °F /  17.7 °C 29.9 in /  1011.7 hPa SW 9 mph /  14.5 km/h 18 mph /  29.0 km/h 71 % 0 in /  0.0 mm
16:32 74.1 °F /  23.4 °C 64.9 °F /  18.3 °C 29.9 in /  1011.7 hPa SW 5 mph /  8.0 km/h 18 mph /  29.0 km/h 73 % 0 in /  0.0 mm
16:37 74.1 °F /  23.4 °C 64.9 °F /  18.3 °C 29.9 in /  1011.7 hPa WSW 14 mph /  22.5 km/h 18 mph /  29.0 km/h 73 % 0 in /  0.0 mm
16:42 74.1 °F /  23.4 °C 64.6 °F /  18.1 °C 29.9 in /  1011.7 hPa WSW 7 mph /  11.3 km/h 18 mph /  29.0 km/h 72 % 0 in /  0.0 mm
16:52 74.5 °F /  23.6 °C 64.9 °F /  18.3 °C 29.9 in /  1011.7 hPa SSW 9 mph /  14.5 km/h 14 mph /  22.5 km/h 72 % 0 in /  0.0 mm
16:57 74.5 °F /  23.6 °C 64.9 °F /  18.3 °C 29.9 in /  1011.7 hPa SW 7 mph /  11.3 km/h 16 mph /  25.7 km/h 72 % 0 in /  0.0 mm
17:02 74.3 °F /  23.5 °C 64.2 °F /  17.9 °C 29.9 in /  1011.7 hPa WSW 11 mph /  17.7 km/h 16 mph /  25.7 km/h 71 % 0 in /  0.0 mm
17:12 74.7 °F /  23.7 °C 64.2 °F /  17.9 °C 29.9 in /  1011.4 hPa WSW 7 mph /  11.3 km/h 15 mph /  24.1 km/h 70 % 0 in /  0.0 mm
17:22 74.7 °F /  23.7 °C 63.9 °F /  17.7 °C 29.9 in /  1011.4 hPa SW 7 mph /  11.3 km/h 15 mph /  24.1 km/h 69 % 0 in /  0.0 mm
17:32 74.8 °F /  23.8 °C 64.4 °F /  18.0 °C 29.9 in /  1011.1 hPa WSW 10 mph /  16.1 km/h 14 mph /  22.5 km/h 70 % 0 in /  0.0 mm
17:42 74.8 °F /  23.8 °C 64 °F /  17.8 °C 29.9 in /  1011.1 hPa SW 11 mph /  17.7 km/h 14 mph /  22.5 km/h 69 % 0 in /  0.0 mm
17:47 74.8 °F /  23.8 °C 64.4 °F /  18.0 °C 29.9 in /  1011.1 hPa SW 11 mph /  17.7 km/h 13 mph /  20.9 km/h 70 % 0 in /  0.0 mm
17:52 75 °F /  23.9 °C 64.6 °F /  18.1 °C 29.9 in /  1011.1 hPa SW 9 mph /  14.5 km/h 13 mph /  20.9 km/h 70 % 0 in /  0.0 mm
18:02 75 °F /  23.9 °C 64.6 °F /  18.1 °C 29.9 in /  1011.1 hPa WSW 7 mph /  11.3 km/h 15 mph /  24.1 km/h 70 % 0 in /  0.0 mm
18:12 75 °F /  23.9 °C 64.6 °F /  18.1 °C 29.8 in /  1010.7 hPa SSW 4 mph /  6.4 km/h 15 mph /  24.1 km/h 70 % 0 in /  0.0 mm
18:17 75 °F /  23.9 °C 64.6 °F /  18.1 °C 29.8 in /  1010.7 hPa SW 5 mph /  8.0 km/h 16 mph /  25.7 km/h 70 % 0 in /  0.0 mm
18:22 74.8 °F /  23.8 °C 64.8 °F /  18.2 °C 29.8 in /  1010.7 hPa South 5 mph /  8.0 km/h 16 mph /  25.7 km/h 71 % 0 in /  0.0 mm
18:32 74.7 °F /  23.7 °C 64.6 °F /  18.1 °C 29.9 in /  1011.1 hPa SSW 4 mph /  6.4 km/h 15 mph /  24.1 km/h 71 % 0 in /  0.0 mm
18:42 74.5 °F /  23.6 °C 64.9 °F /  18.3 °C 29.9 in /  1011.1 hPa SW 7 mph /  11.3 km/h 13 mph /  20.9 km/h 72 % 0 in /  0.0 mm
18:52 74.7 °F /  23.7 °C 64.2 °F /  17.9 °C 29.8 in /  1010.7 hPa SSW 9 mph /  14.5 km/h 13 mph /  20.9 km/h 70 % 0 in /  0.0 mm
18:57 74.7 °F /  23.7 °C 64.2 °F /  17.9 °C 29.8 in /  1010.7 hPa SW 12 mph /  19.3 km/h 12 mph /  19.3 km/h 70 % 0 in /  0.0 mm
19:02 74.7 °F /  23.7 °C 64.6 °F /  18.1 °C 29.9 in /  1011.4 hPa West 12 mph /  19.3 km/h 14 mph /  22.5 km/h 71 % 0 in /  0.0 mm
19:12 68.2 °F /  20.1 °C 64.2 °F /  17.9 °C 29.9 in /  1011.4 hPa WNW 9 mph /  14.5 km/h 20 mph /  32.2 km/h 87 % 0 in /  0.0 mm
19:17 67.5 °F /  19.7 °C 64 °F /  17.8 °C 29.9 in /  1011.4 hPa WSW 9 mph /  14.5 km/h 22 mph /  35.4 km/h 89 % 0.05 in /  1.3 mm
19:22 67.5 °F /  19.7 °C 64.4 °F /  18.0 °C 29.9 in /  1011.4 hPa WNW 3 mph /  4.8 km/h 22 mph /  35.4 km/h 90 % 0.06 in /  1.5 mm
19:27 67.5 °F /  19.7 °C 64.4 °F /  18.0 °C 29.9 in /  1011.4 hPa WSW 4 mph /  6.4 km/h 15 mph /  24.1 km/h 90 % 0.06 in /  1.5 mm
19:32 67.6 °F /  19.8 °C 64.6 °F /  18.1 °C 29.9 in /  1011.4 hPa West 6 mph /  9.7 km/h 12 mph /  19.3 km/h 90 % 0.06 in /  1.5 mm
19:42 68 °F /  20.0 °C 64.9 °F /  18.3 °C 29.9 in /  1011.4 hPa WSW 7 mph /  11.3 km/h 11 mph /  17.7 km/h 90 % 0.06 in /  1.5 mm
19:52 67.8 °F /  19.9 °C 64.8 °F /  18.2 °C 29.9 in /  1011.7 hPa West 4 mph /  6.4 km/h 11 mph /  17.7 km/h 90 % 0.06 in /  1.5 mm
19:57 67.8 °F /  19.9 °C 64.8 °F /  18.2 °C 29.9 in /  1011.7 hPa SW 2 mph /  3.2 km/h 11 mph /  17.7 km/h 90 % 0.06 in /  1.5 mm
20:02 67.6 °F /  19.8 °C 64.6 °F /  18.1 °C 29.9 in /  1011.7 hPa WSW 3 mph /  4.8 km/h 10 mph /  16.1 km/h 90 % 0.06 in /  1.5 mm
20:12 67.5 °F /  19.7 °C 64.4 °F /  18.0 °C 29.9 in /  1011.7 hPa WSW 6 mph /  9.7 km/h 10 mph /  16.1 km/h 90 % 0.06 in /  1.5 mm
20:17 67.5 °F /  19.7 °C 64.4 °F /  18.0 °C 29.9 in /  1012.1 hPa West 2 mph /  3.2 km/h 7 mph /  11.3 km/h 90 % 0.01 in /  0.3 mm
20:22 67.5 °F /  19.7 °C 64.4 °F /  18.0 °C 29.9 in /  1012.1 hPa WSW 1 mph /  1.6 km/h 8 mph /  12.9 km/h 90 % 0 in /  0.0 mm
20:32 67.3 °F /  19.6 °C 64.2 °F /  17.9 °C 29.9 in /  1012.4 hPa SW 3 mph /  4.8 km/h 8 mph /  12.9 km/h 90 % 0 in /  0.0 mm
20:42 67.3 °F /  19.6 °C 64.6 °F /  18.1 °C 29.9 in /  1012.8 hPa WSW 2 mph /  3.2 km/h 7 mph /  11.3 km/h 91 % 0 in /  0.0 mm
20:47 67.1 °F /  19.5 °C 64.4 °F /  18.0 °C 29.9 in /  1012.8 hPa WSW 3 mph /  4.8 km/h 7 mph /  11.3 km/h 91 % 0 in /  0.0 mm
20:52 67.1 °F /  19.5 °C 64.4 °F /  18.0 °C 29.9 in /  1012.8 hPa SW 4 mph /  6.4 km/h 7 mph /  11.3 km/h 91 % 0 in /  0.0 mm
20:57 67.1 °F /  19.5 °C 64 °F /  17.8 °C 29.9 in /  1012.8 hPa WSW 2 mph /  3.2 km/h 8 mph /  12.9 km/h 90 % 0 in /  0.0 mm
21:02 66.9 °F /  19.4 °C 63.9 °F /  17.7 °C 29.9 in /  1012.8 hPa SW 6 mph /  9.7 km/h 8 mph /  12.9 km/h 90 % 0 in /  0.0 mm
21:12 66.9 °F /  19.4 °C 64.2 °F /  17.9 °C 29.9 in /  1013.1 hPa SW 6 mph /  9.7 km/h 8 mph /  12.9 km/h 91 % 0 in /  0.0 mm
21:17 66.7 °F /  19.3 °C 64 °F /  17.8 °C 29.9 in /  1012.8 hPa WSW 3 mph /  4.8 km/h 9 mph /  14.5 km/h 91 % 0 in /  0.0 mm
21:22 66.7 °F /  19.3 °C 64 °F /  17.8 °C 29.9 in /  1013.1 hPa West 3 mph /  4.8 km/h 8 mph /  12.9 km/h 91 % 0 in /  0.0 mm
21:32 66.6 °F /  19.2 °C 63.9 °F /  17.7 °C 29.9 in /  1013.1 hPa West 1 mph /  1.6 km/h 8 mph /  12.9 km/h 91 % 0 in /  0.0 mm
21:42 66.2 °F /  19.0 °C 63.5 °F /  17.5 °C 29.9 in /  1013.1 hPa West 1 mph /  1.6 km/h 7 mph /  11.3 km/h 91 % 0 in /  0.0 mm
21:47 66 °F /  18.9 °C 63.3 °F /  17.4 °C 29.9 in /  1013.1 hPa WSW 2 mph /  3.2 km/h 6 mph /  9.7 km/h 91 % 0 in /  0.0 mm
21:57 65.8 °F /  18.8 °C 63.1 °F /  17.3 °C 29.9 in /  1013.4 hPa WNW 4 mph /  6.4 km/h 6 mph /  9.7 km/h 91 % 0 in /  0.0 mm
22:02 65.8 °F /  18.8 °C 63.1 °F /  17.3 °C 29.9 in /  1013.4 hPa West 3 mph /  4.8 km/h 6 mph /  9.7 km/h 91 % 0 in /  0.0 mm
22:12 65.7 °F /  18.7 °C 62.6 °F /  17.0 °C 29.9 in /  1013.8 hPa WSW 2 mph /  3.2 km/h 6 mph /  9.7 km/h 90 % 0 in /  0.0 mm
22:17 65.5 °F /  18.6 °C 62.2 °F /  16.8 °C 29.9 in /  1013.8 hPa WNW 5 mph /  8.0 km/h 7 mph /  11.3 km/h 89 % 0 in /  0.0 mm
22:22 65.3 °F /  18.5 °C 62.1 °F /  16.7 °C 29.9 in /  1013.8 hPa WNW 6 mph /  9.7 km/h 10 mph /  16.1 km/h 89 % 0 in /  0.0 mm
22:27 65.1 °F /  18.4 °C 61.9 °F /  16.6 °C 29.9 in /  1013.8 hPa NW 1 mph /  1.6 km/h 10 mph /  16.1 km/h 89 % 0 in /  0.0 mm
22:32 64.9 °F /  18.3 °C 61.7 °F /  16.5 °C 29.9 in /  1013.8 hPa West 2 mph /  3.2 km/h 10 mph /  16.1 km/h 89 % 0 in /  0.0 mm
22:42 64.8 °F /  18.2 °C 61.2 °F /  16.2 °C 29.9 in /  1014.1 hPa WNW 3 mph /  4.8 km/h 9 mph /  14.5 km/h 88 % 0 in /  0.0 mm
22:52 64.2 °F /  17.9 °C 60.6 °F /  15.9 °C 29.9 in /  1014.1 hPa West 2 mph /  3.2 km/h 10 mph /  16.1 km/h 88 % 0 in /  0.0 mm
22:57 64.2 °F /  17.9 °C 60.6 °F /  15.9 °C 29.9 in /  1014.1 hPa West 3 mph /  4.8 km/h 10 mph /  16.1 km/h 88 % 0 in /  0.0 mm
23:02 64 °F /  17.8 °C 60.8 °F /  16.0 °C 29.9 in /  1014.1 hPa WNW 4 mph /  6.4 km/h 9 mph /  14.5 km/h 89 % 0 in /  0.0 mm
23:12 63.7 °F /  17.6 °C 60.4 °F /  15.8 °C 29.9 in /  1014.1 hPa NW 5 mph /  8.0 km/h 9 mph /  14.5 km/h 89 % 0 in /  0.0 mm
23:17 63.5 °F /  17.5 °C 60.3 °F /  15.7 °C 29.9 in /  1014.1 hPa Calm   8 mph /  12.9 km/h 89 % 0 in /  0.0 mm
23:22 63.3 °F /  17.4 °C 60.1 °F /  15.6 °C 30 in /  1014.4 hPa NW 2 mph /  3.2 km/h 8 mph /  12.9 km/h 89 % 0 in /  0.0 mm
23:27 63.1 °F /  17.3 °C 59.5 °F /  15.3 °C 30 in /  1014.4 hPa WNW 4 mph /  6.4 km/h 8 mph /  12.9 km/h 88 % 0 in /  0.0 mm
23:32 62.8 °F /  17.1 °C 59.5 °F /  15.3 °C 30 in /  1014.4 hPa WNW 4 mph /  6.4 km/h 8 mph /  12.9 km/h 89 % 0 in /  0.0 mm
23:42 62.1 °F /  16.7 °C 58.8 °F /  14.9 °C 30 in /  1014.4 hPa WNW 7 mph /  11.3 km/h 9 mph /  14.5 km/h 89 % 0 in /  0.0 mm
23:47 61.7 °F /  16.5 °C 58.8 °F /  14.9 °C 30 in /  1014.4 hPa North 4 mph /  6.4 km/h 9 mph /  14.5 km/h 90 % 0 in /  0.0 mm
23:52 61.3 °F /  16.3 °C 58.5 °F /  14.7 °C 30 in /  1014.4 hPa NW 2 mph /  3.2 km/h 9 mph /  14.5 km/h 90 % 0 in /  0.0 mm
23:57 60.8 °F /  16.0 °C 57.9 °F /  14.4 °C 30 in /  1014.4 hPa NNW 1 mph /  1.6 km/h 9 mph /  14.5 km/h 90 % 0 in /  0.0 mm
Meteo18
Compliments of Weather Underground - 4 mb

Script developed by  Jim McMurry - jmcmurry@mwt.net Adapted for the template by  Wim van der Kuil - Leuven-Template.eu

You find our weather info also at:

European Weather Network

Weather Underground

Equipment we use:

Weather-station
Davis Vue

Weather-program
Meteohub

Weather-server
Raspberry PI 2 B+

Provider
1 and 1

Davis Vue

Meteohub

Raspberry PI 2 B+

1 and 1